Historique des mesures à Cassis (13260), France
Quotidien Résumé Juin 30, 2017 Unités:  Métrique    US   Métrique/US
« Précédent (Jour)
Suivant (Jour) »
Quotidien Hebdomadaire Mensuel Annuel Période au choix
  Maximum: Minimum: Moyenne:
Température: TemperatureC °C 18.1 °C 20.4 °C
Point de rosée: DewpointC °C 8.9 °C 10.3 °C
Humidité: Humidity % 40 % 49 %
Vitesse du vent: 0 km/h 0 km/h 15.4 km/h
Rafales: 0 km/h - -
Vent:- - SSW
Pression: PressurehPa hPa 1006.0 hPa -
Précipitations: 0.0 mm    
Historical Graphs
 
 
Mesures pour : Juin 30, 2017
Heure Temperature Point de rosée Pression Vent Vitesse du vent Rafales Humidité Pluie (par heure) Conditions
TemperatureC °C DewpointC °C PressurehPa hPa Calm     Humidity % HourlyPrecipMM mm SoftwareType W/m2
00:10 20.9 °C 10.7 °C 1006.0 hPa NNW 14.5 km/h 16.9 km/h 52 % 0.0 mm open2300-1.11 W/m2
01:11 20.6 °C 10.1 °C 1006.3 hPa NNW 29 km/h 29 km/h 51 % 0.0 mm open2300-1.11 W/m2
02:11 19.9 °C 10.3 °C 1006.3 hPa NW 17.4 km/h 23.8 km/h 54 % 0.0 mm open2300-1.11 W/m2
03:10 19.4 °C 9.6 °C 1006.3 hPa NW 29 km/h 29 km/h 53 % 0.0 mm open2300-1.11 W/m2
04:10 19.0 °C 8.9 °C 1006.0 hPa North 13.2 km/h 35.2 km/h 52 % 0.0 mm open2300-1.11 W/m2
05:10 18.5 °C 9.3 °C 1006.3 hPa NW 46.3 km/h 46.3 km/h 55 % 0.0 mm open2300-1.11 W/m2
06:11 18.1 °C 9.4 °C 1007.0 hPa Calm   4.7 km/h 57 % 0.0 mm open2300-1.11 W/m2
07:11 18.3 °C 9.9 °C 1007.0 hPa Calm   2.3 km/h 58 % 0.0 mm open2300-1.11 W/m2
08:10 18.4 °C 10.2 °C 1007.7 hPa NNE 4.2 km/h 6.4 km/h 59 % 0.0 mm open2300-1.11 W/m2
09:11 19.2 °C 9.7 °C 1007.3 hPa NNE 10.3 km/h 15 km/h 54 % 0.0 mm open2300-1.11 W/m2
10:10 21.1 °C 9.9 °C 1008.0 hPa North 6.4 km/h 18.7 km/h 49 % 0.0 mm open2300-1.11 W/m2
11:11 23.3 °C 9.6 °C 1007.7 hPa NNW 9.8 km/h 9.8 km/h 42 % 0.0 mm open2300-1.11 W/m2
12:10 24.9 °C 10.7 °C 1008.0 hPa WNW 9.3 km/h 19.2 km/h 41 % 0.0 mm open2300-1.11 W/m2
13:10 24.8 °C 10.7 °C 1008.0 hPa NNE 19.2 km/h 34.1 km/h 41 % 0.0 mm open2300-1.11 W/m2
14:11 23.8 °C 9.4 °C 1008.0 hPa NW 32.3 km/h 32.3 km/h 40 % 0.0 mm open2300-1.11 W/m2
16:11 24.9 °C 12.4 °C 1008.4 hPa SSW 9.8 km/h 21.6 km/h 46 % 0.0 mm open2300-1.11 W/m2
17:11 24.4 °C 12.3 °C 1008.0 hPa SSW 7.6 km/h 16.3 km/h 47 % 0.0 mm open2300-1.11 W/m2
18:11 24.5 °C 12.8 °C 1008.7 hPa South 20.9 km/h 27.7 km/h 48 % 0.0 mm open2300-1.11 W/m2
19:10 23.1 °C 12.7 °C 1009.0 hPa WSW 19.2 km/h 23 km/h 52 % 0.0 mm open2300-1.11 W/m2
20:11 21.9 °C 12.7 °C 1009.0 hPa WNW 26.2 km/h 26.2 km/h 56 % 0.0 mm open2300-1.11 W/m2
21:10 21.2 °C 12.1 °C 1009.4 hPa WNW 15.6 km/h 29.5 km/h 56 % 0.0 mm open2300-1.11 W/m2
22:10 20.8 °C 12.2 °C 1010.0 hPa NNE 5.6 km/h 8.9 km/h 58 % 0.0 mm open2300-1.11 W/m2
23:11 19.6 °C 12.1 °C 1010.7 hPa NNW 23.8 km/h 23.8 km/h 62 % 0.0 mm open2300-1.11 W/m2
Observations météo à CASSIS
WU-History script by Weather Underground - 1 mb